createdAt,value
2018-10-06T00:00:00.763Z,58.20
2018-10-06T00:01:04.237Z,58.95
2018-10-06T00:02:08.195Z,58.67
2018-10-06T00:03:11.580Z,58.63
2018-10-06T00:04:15.032Z,58.17
2018-10-06T00:05:18.528Z,58.21
2018-10-06T00:06:21.977Z,58.82
2018-10-06T00:07:25.822Z,57.98
2018-10-06T00:08:29.260Z,58.58
2018-10-06T00:09:32.700Z,58.13
2018-10-06T00:10:36.217Z,58.52
2018-10-06T00:11:39.859Z,58.89
2018-10-06T00:12:43.340Z,57.86
2018-10-06T00:13:46.795Z,58.95
2018-10-06T00:14:50.291Z,58.55
2018-10-06T00:15:53.692Z,58.81
2018-10-06T00:16:57.203Z,58.02
2018-10-06T00:18:00.663Z,58.61
2018-10-06T00:19:04.146Z,58.84
2018-10-06T00:20:08.897Z,58.94
2018-10-06T00:21:12.296Z,58.94
2018-10-06T00:22:15.851Z,58.91
2018-10-06T00:23:19.346Z,58.67
2018-10-06T00:24:22.757Z,58.82
2018-10-06T00:25:26.139Z,58.30
2018-10-06T00:26:29.577Z,59.02
2018-10-06T00:27:33.032Z,59.21
2018-10-06T00:28:36.798Z,59.36
2018-10-06T00:29:40.764Z,59.43
2018-10-06T00:30:44.182Z,58.99
2018-10-06T00:31:49.225Z,59.52
2018-10-06T00:32:52.688Z,59.79
2018-10-06T00:33:56.180Z,59.37
2018-10-06T00:34:59.707Z,59.16
2018-10-06T00:36:03.148Z,59.21
2018-10-06T00:37:06.847Z,59.43
2018-10-06T00:38:10.316Z,59.33
2018-10-06T00:39:13.809Z,59.60
2018-10-06T00:40:17.260Z,59.92
2018-10-06T00:41:20.780Z,59.92
2018-10-06T00:42:24.261Z,59.51
2018-10-06T00:43:27.761Z,59.39
2018-10-06T00:44:31.304Z,59.81
2018-10-06T00:45:34.736Z,59.58
2018-10-06T00:46:38.297Z,59.69
2018-10-06T00:47:41.802Z,60.33
2018-10-06T00:48:45.250Z,59.91
2018-10-06T00:49:48.893Z,59.50
2018-10-06T00:50:52.317Z,59.80
2018-10-06T00:51:55.813Z,59.97
2018-10-06T00:52:59.241Z,59.52
2018-10-06T00:54:02.663Z,60.17
2018-10-06T00:55:06.150Z,60.21
2018-10-06T00:56:09.608Z,59.79
2018-10-06T00:57:13.057Z,59.71
2018-10-06T00:58:16.563Z,60.42
2018-10-06T00:59:20.200Z,60.60
2018-10-06T01:00:23.636Z,59.80
2018-10-06T01:01:27.057Z,60.43
2018-10-06T01:02:30.441Z,60.01
2018-10-06T01:03:33.879Z,60.22
2018-10-06T01:04:37.368Z,60.27
2018-10-06T01:05:40.847Z,60.12
2018-10-06T01:06:44.265Z,59.66
2018-10-06T01:07:47.700Z,59.52
2018-10-06T01:08:51.198Z,59.66
2018-10-06T01:09:54.625Z,60.32
2018-10-06T01:10:58.288Z,59.81
2018-10-06T01:12:01.668Z,60.08
2018-10-06T01:13:05.095Z,60.10
2018-10-06T01:14:08.561Z,60.06
2018-10-06T01:15:11.995Z,60.16
2018-10-06T01:16:15.553Z,60.34
2018-10-06T01:17:18.959Z,60.87
2018-10-06T01:18:23.732Z,60.44
2018-10-06T01:19:27.442Z,59.96
2018-10-06T01:21:33.366Z,60.39
2018-10-06T01:22:36.770Z,60.13
2018-10-06T01:23:40.237Z,60.72
2018-10-06T01:24:43.649Z,60.58
2018-10-06T01:25:47.142Z,60.17
2018-10-06T01:26:50.892Z,60.79
2018-10-06T01:27:54.442Z,60.78
2018-10-06T01:28:57.867Z,60.47
2018-10-06T01:30:01.278Z,60.44
2018-10-06T01:31:04.718Z,60.87
2018-10-06T01:32:08.162Z,60.35
2018-10-06T01:33:11.580Z,60.95
2018-10-06T01:34:15.009Z,60.68
2018-10-06T01:35:18.473Z,61.06
2018-10-06T01:36:22.322Z,60.27
2018-10-06T01:37:25.779Z,60.94
2018-10-06T01:38:29.213Z,61.13
2018-10-06T01:39:32.907Z,60.66
2018-10-06T01:40:36.407Z,61.15
2018-10-06T01:41:39.847Z,60.91
2018-10-06T01:42:43.251Z,61.17
2018-10-06T01:43:46.655Z,61.59
2018-10-06T01:44:50.108Z,60.76
2018-10-06T01:45:53.523Z,60.95
2018-10-06T01:46:56.942Z,61.73
2018-10-06T01:48:00.382Z,61.08
2018-10-06T01:49:03.773Z,61.34
2018-10-06T01:50:07.979Z,61.55
2018-10-06T01:51:11.440Z,61.83
2018-10-06T01:52:14.902Z,61.38
2018-10-06T01:53:18.427Z,61.66
2018-10-06T01:54:21.845Z,61.44
2018-10-06T01:55:25.277Z,61.33
2018-10-06T01:56:28.761Z,61.28
2018-10-06T01:57:32.200Z,61.07
2018-10-06T01:58:35.609Z,61.44
2018-10-06T01:59:39.032Z,61.17
2018-10-06T02:00:42.680Z,61.50
2018-10-06T02:01:46.115Z,61.19
2018-10-06T02:02:49.586Z,61.66
2018-10-06T02:03:53.045Z,61.94
2018-10-06T02:04:56.464Z,61.55
2018-10-06T02:05:59.914Z,61.35
2018-10-06T02:07:03.352Z,61.87
2018-10-06T02:08:06.781Z,61.48
2018-10-06T02:09:10.237Z,62.18
2018-10-06T02:10:13.869Z,62.33
2018-10-06T02:11:17.306Z,62.03
2018-10-06T02:12:20.711Z,61.90
2018-10-06T02:13:24.133Z,61.96
2018-10-06T02:14:27.622Z,61.79
2018-10-06T02:15:31.260Z,61.93
2018-10-06T02:16:34.677Z,61.75
2018-10-06T02:17:38.107Z,61.79
2018-10-06T02:18:41.526Z,61.96
2018-10-06T02:19:44.962Z,61.34
2018-10-06T02:20:48.461Z,61.75
2018-10-06T02:21:51.887Z,61.53
2018-10-06T02:22:55.430Z,62.06
2018-10-06T02:23:58.844Z,62.05
2018-10-06T02:25:02.258Z,61.50
2018-10-06T02:26:05.894Z,61.88
2018-10-06T02:27:09.313Z,62.29
2018-10-06T02:28:12.856Z,62.42
2018-10-06T02:29:16.247Z,61.78
2018-10-06T02:30:19.918Z,62.37
2018-10-06T02:31:23.362Z,61.87
2018-10-06T02:32:26.822Z,62.07
2018-10-06T02:33:30.242Z,62.34
2018-10-06T02:34:33.662Z,61.70
2018-10-06T02:35:37.980Z,62.60
2018-10-06T02:36:41.453Z,61.85
2018-10-06T02:37:44.833Z,62.41
2018-10-06T02:38:48.302Z,62.03
2018-10-06T02:39:51.749Z,62.25
2018-10-06T02:40:55.185Z,62.38
2018-10-06T02:41:58.597Z,62.50
2018-10-06T02:43:02.042Z,62.60
2018-10-06T02:44:05.506Z,62.78
2018-10-06T02:45:09.838Z,62.74
2018-10-06T02:46:13.350Z,62.79
2018-10-06T02:47:16.799Z,62.76
2018-10-06T02:48:20.266Z,62.33
2018-10-06T02:49:23.704Z,62.42
2018-10-06T02:50:27.134Z,62.14
2018-10-06T02:51:30.597Z,62.07
2018-10-06T02:52:34.025Z,62.61
2018-10-06T02:53:37.497Z,62.92
2018-10-06T02:54:40.918Z,62.55
2018-10-06T02:55:44.336Z,62.67
2018-10-06T02:56:47.813Z,62.67
2018-10-06T02:57:51.274Z,62.49
2018-10-06T02:58:54.729Z,62.60
2018-10-06T02:59:58.185Z,62.14
2018-10-06T03:01:01.602Z,62.45
2018-10-06T03:02:05.041Z,62.84
2018-10-06T03:03:08.455Z,62.46
2018-10-06T03:04:11.903Z,62.81
2018-10-06T03:05:15.367Z,62.96
2018-10-06T03:06:19.045Z,62.81
2018-10-06T03:07:22.482Z,62.82
2018-10-06T03:08:25.898Z,62.25
2018-10-06T03:09:29.321Z,62.27
2018-10-06T03:10:32.763Z,62.57
2018-10-06T03:11:36.253Z,62.74
2018-10-06T03:12:39.724Z,62.50
2018-10-06T03:13:43.176Z,62.25
2018-10-06T03:14:46.717Z,62.90
2018-10-06T03:15:50.142Z,63.06
2018-10-06T03:16:53.580Z,62.97
2018-10-06T03:17:57.046Z,63.02
2018-10-06T03:19:00.521Z,62.98
2018-10-06T03:20:03.990Z,62.58
2018-10-06T03:21:07.704Z,62.79
2018-10-06T03:22:11.479Z,62.62
2018-10-06T03:23:14.983Z,62.74
2018-10-06T03:24:18.436Z,63.29
2018-10-06T03:25:21.884Z,63.32
2018-10-06T03:26:25.332Z,63.03
2018-10-06T03:27:28.817Z,62.44
2018-10-06T03:28:32.279Z,62.58
2018-10-06T03:29:35.758Z,63.02
2018-10-06T03:30:39.190Z,62.53
2018-10-06T03:31:42.579Z,62.56
2018-10-06T03:32:46.034Z,63.11
2018-10-06T03:33:49.508Z,62.74
2018-10-06T03:34:53.004Z,63.23
2018-10-06T03:35:56.447Z,63.01
2018-10-06T03:36:59.875Z,63.40
2018-10-06T03:38:03.314Z,62.77
2018-10-06T03:39:07.362Z,63.26
2018-10-06T03:40:10.774Z,62.94
2018-10-06T03:41:14.179Z,62.83
2018-10-06T03:42:18.388Z,63.37
2018-10-06T03:43:21.835Z,62.59
2018-10-06T03:44:25.262Z,62.52
2018-10-06T03:45:28.684Z,62.62
2018-10-06T03:46:32.080Z,63.36
2018-10-06T03:47:35.538Z,63.40
2018-10-06T03:48:38.947Z,63.11
2018-10-06T03:49:42.356Z,62.83
2018-10-06T03:50:45.864Z,63.51
2018-10-06T03:51:49.363Z,62.85
2018-10-06T03:52:53.221Z,63.67
2018-10-06T03:53:56.721Z,62.83
2018-10-06T03:55:00.161Z,63.47
2018-10-06T03:56:03.639Z,62.74
2018-10-06T03:57:07.035Z,63.48
2018-10-06T03:58:10.456Z,63.12
2018-10-06T03:59:14.169Z,62.97
2018-10-06T04:00:17.657Z,63.26
2018-10-06T04:01:21.147Z,62.48
2018-10-06T04:02:24.600Z,62.96
2018-10-06T04:03:28.244Z,62.43
2018-10-06T04:04:31.654Z,63.21
2018-10-06T04:05:35.081Z,62.61
2018-10-06T04:06:38.481Z,62.68
2018-10-06T04:07:42.016Z,62.99
2018-10-06T04:08:45.429Z,62.39
2018-10-06T04:09:48.842Z,62.60
2018-10-06T04:10:52.502Z,62.41
2018-10-06T04:11:55.943Z,62.25
2018-10-06T04:12:59.358Z,62.63
2018-10-06T04:14:02.772Z,62.44
2018-10-06T04:15:06.948Z,62.59
2018-10-06T04:16:10.399Z,62.59
2018-10-06T04:17:13.857Z,62.29
2018-10-06T04:18:17.294Z,62.75
2018-10-06T04:19:20.889Z,62.44
2018-10-06T04:20:24.362Z,62.76
2018-10-06T04:21:31.951Z,62.28
2018-10-06T04:22:35.367Z,63.21
2018-10-06T04:23:38.763Z,63.41
2018-10-06T04:24:42.209Z,63.42
2018-10-06T04:25:45.657Z,63.57
2018-10-06T04:26:49.113Z,63.62
2018-10-06T04:27:52.608Z,63.69
2018-10-06T04:28:56.045Z,63.47
2018-10-06T04:29:59.469Z,63.41
2018-10-06T04:31:02.921Z,63.11
2018-10-06T04:32:06.411Z,63.41
2018-10-06T04:33:09.844Z,62.56
2018-10-06T04:34:13.257Z,63.53
2018-10-06T04:35:16.723Z,63.18
2018-10-06T04:36:20.204Z,62.71
2018-10-06T04:37:23.666Z,63.69
2018-10-06T04:38:27.075Z,63.26
2018-10-06T04:39:30.455Z,63.43
2018-10-06T04:40:33.896Z,62.83
2018-10-06T04:41:37.377Z,63.39
2018-10-06T04:42:40.947Z,62.94
2018-10-06T04:43:44.359Z,63.08
2018-10-06T04:44:47.839Z,63.11
2018-10-06T04:45:51.442Z,63.54
2018-10-06T04:46:54.906Z,63.67
2018-10-06T04:47:58.358Z,63.48
2018-10-06T04:49:01.844Z,63.77
2018-10-06T04:50:05.340Z,63.77
2018-10-06T04:51:08.783Z,63.15
2018-10-06T04:52:12.206Z,63.22
2018-10-06T04:53:15.803Z,63.16
2018-10-06T04:54:19.233Z,63.80
2018-10-06T04:55:22.697Z,62.99
2018-10-06T04:56:26.164Z,63.42
2018-10-06T04:57:29.586Z,63.72
2018-10-06T04:58:33.037Z,63.73
2018-10-06T04:59:36.423Z,63.34
2018-10-06T05:00:39.901Z,63.66
2018-10-06T05:01:43.342Z,63.13
2018-10-06T05:02:46.762Z,63.12
2018-10-06T05:03:50.398Z,63.43
2018-10-06T05:04:53.857Z,63.15
2018-10-06T05:05:57.348Z,63.26
2018-10-06T05:07:00.812Z,63.70
2018-10-06T05:08:04.260Z,63.56
2018-10-06T05:09:08.744Z,63.95
2018-10-06T05:10:12.157Z,63.57
2018-10-06T05:11:15.591Z,64.17
2018-10-06T05:12:18.974Z,63.49
2018-10-06T05:13:22.835Z,63.69
2018-10-06T05:14:26.293Z,63.54
2018-10-06T05:15:29.735Z,63.21
2018-10-06T05:16:33.158Z,63.68
2018-10-06T05:17:36.583Z,63.67
2018-10-06T05:18:40.070Z,63.57
2018-10-06T05:19:43.766Z,63.47
2018-10-06T05:20:47.225Z,63.33
2018-10-06T05:21:50.697Z,63.77
2018-10-06T05:22:54.148Z,63.73
2018-10-06T05:23:57.591Z,63.83
2018-10-06T05:25:01.084Z,63.17
2018-10-06T05:26:04.688Z,63.23
2018-10-06T05:27:08.287Z,63.94
2018-10-06T05:28:11.713Z,63.50
2018-10-06T05:29:15.163Z,63.72
2018-10-06T05:30:19.507Z,63.52
2018-10-06T05:31:22.973Z,64.22
2018-10-06T05:32:26.395Z,63.96
2018-10-06T05:33:30.153Z,63.39
2018-10-06T05:34:33.573Z,63.30
2018-10-06T05:35:37.013Z,64.09
2018-10-06T05:36:40.410Z,64.20
2018-10-06T05:37:43.854Z,63.47
2018-10-06T05:38:47.306Z,63.23
2018-10-06T05:39:50.769Z,63.40
2018-10-06T05:40:54.382Z,63.69
2018-10-06T05:41:57.848Z,64.18
2018-10-06T05:43:01.289Z,64.13
2018-10-06T05:44:04.779Z,63.24
2018-10-06T05:45:08.289Z,63.41
2018-10-06T05:46:11.702Z,63.53
2018-10-06T05:47:15.141Z,63.25
2018-10-06T05:48:18.630Z,63.34
2018-10-06T05:49:22.096Z,64.03
2018-10-06T05:50:25.572Z,63.98
2018-10-06T05:51:29.038Z,63.83
2018-10-06T05:52:32.455Z,63.67
2018-10-06T05:53:35.909Z,64.36
2018-10-06T05:54:39.345Z,63.99
2018-10-06T05:55:42.803Z,63.70
2018-10-06T05:56:46.245Z,63.64
2018-10-06T05:57:49.766Z,64.09
2018-10-06T05:58:53.280Z,63.73
2018-10-06T05:59:56.682Z,63.84
2018-10-06T06:01:00.128Z,63.52
2018-10-06T06:02:03.643Z,63.87
2018-10-06T06:03:07.054Z,64.21
2018-10-06T06:04:10.468Z,63.85
2018-10-06T06:05:15.210Z,64.19
2018-10-06T06:06:18.673Z,64.45
2018-10-06T06:07:22.308Z,64.70
2018-10-06T06:08:25.779Z,63.54
2018-10-06T06:09:29.382Z,63.83
2018-10-06T06:10:32.889Z,63.68
2018-10-06T06:11:36.593Z,63.55
2018-10-06T06:12:40.342Z,64.10
2018-10-06T06:13:44.034Z,63.47
2018-10-06T06:14:47.529Z,63.69
2018-10-06T06:15:50.963Z,63.37
2018-10-06T06:16:54.590Z,63.99
2018-10-06T06:17:57.981Z,63.90
2018-10-06T06:19:02.176Z,63.69
2018-10-06T06:20:05.786Z,63.36
2018-10-06T06:21:11.701Z,63.23
2018-10-06T06:22:17.776Z,63.62
2018-10-06T06:23:21.916Z,63.68
2018-10-06T06:24:25.926Z,63.56
2018-10-06T06:25:29.394Z,63.26
2018-10-06T06:26:32.880Z,63.31
2018-10-06T06:27:36.316Z,63.37
2018-10-06T06:28:39.822Z,63.58
2018-10-06T06:29:43.476Z,63.20
2018-10-06T06:30:47.533Z,63.43
2018-10-06T06:31:51.609Z,63.15
2018-10-06T06:32:55.715Z,62.80
2018-10-06T06:33:59.406Z,62.77
2018-10-06T06:35:02.888Z,63.24
2018-10-06T06:36:06.639Z,63.35
2018-10-06T06:37:10.598Z,63.57
2018-10-06T06:38:14.279Z,63.68
2018-10-06T06:39:18.248Z,64.29
2018-10-06T06:40:22.020Z,64.10
2018-10-06T06:41:25.484Z,63.88
2018-10-06T06:42:28.940Z,63.99
2018-10-06T06:43:32.403Z,63.91
2018-10-06T06:44:36.731Z,63.30
2018-10-06T06:45:41.070Z,63.58
2018-10-06T06:46:44.548Z,63.45
2018-10-06T06:47:48.033Z,63.72
2018-10-06T06:48:51.502Z,63.23
2018-10-06T06:49:55.085Z,63.61
2018-10-06T06:50:58.577Z,63.36
2018-10-06T06:52:05.612Z,63.61
2018-10-06T06:53:09.167Z,63.65
2018-10-06T06:54:12.610Z,62.79
2018-10-06T06:55:16.027Z,63.60
2018-10-06T06:56:19.510Z,63.07
2018-10-06T06:57:22.986Z,63.76
2018-10-06T06:58:26.531Z,63.41
2018-10-06T06:59:29.957Z,63.70
2018-10-06T07:00:33.383Z,63.20
2018-10-06T07:01:37.725Z,63.57
2018-10-06T07:02:41.214Z,62.75
2018-10-06T07:03:44.763Z,63.27
2018-10-06T07:04:48.245Z,63.40
2018-10-06T07:05:51.754Z,63.43
2018-10-06T07:06:55.157Z,63.42
2018-10-06T07:07:58.689Z,62.92
2018-10-06T07:09:02.153Z,63.15
2018-10-06T07:10:05.641Z,62.34
2018-10-06T07:11:09.099Z,60.17
2018-10-06T07:12:12.674Z,60.34
2018-10-06T07:13:16.118Z,60.34
2018-10-06T07:14:20.264Z,59.76
2018-10-06T07:15:23.729Z,58.45
2018-10-06T07:16:27.355Z,58.83
2018-10-06T07:17:31.896Z,58.75
2018-10-06T07:18:35.657Z,58.11
2018-10-06T07:19:39.102Z,58.08
2018-10-06T07:20:42.537Z,58.04
2018-10-06T07:21:45.974Z,57.28
2018-10-06T07:22:49.636Z,57.40
2018-10-06T07:23:53.093Z,57.27
2018-10-06T07:24:56.541Z,56.58
2018-10-06T07:25:59.990Z,56.76
2018-10-06T07:27:03.484Z,57.49
2018-10-06T07:28:06.942Z,56.92
2018-10-06T07:29:10.369Z,56.98
2018-10-06T07:30:13.770Z,56.43
2018-10-06T07:31:17.823Z,56.32
2018-10-06T07:32:21.251Z,57.34
2018-10-06T07:33:24.823Z,56.87
2018-10-06T07:34:28.223Z,56.93
2018-10-06T07:36:34.094Z,56.96
2018-10-06T07:37:37.530Z,56.97
2018-10-06T07:38:41.041Z,57.25
2018-10-06T07:39:44.469Z,57.33
2018-10-06T07:40:47.995Z,57.40
2018-10-06T07:41:51.408Z,57.27
2018-10-06T07:42:54.835Z,57.49
2018-10-06T07:43:59.301Z,57.58
2018-10-06T07:45:02.869Z,57.66
2018-10-06T07:46:06.309Z,57.41
2018-10-06T07:47:09.749Z,57.80
2018-10-06T07:48:13.211Z,57.84
2018-10-06T07:49:16.661Z,57.43
2018-10-06T07:50:20.165Z,57.93
2018-10-06T07:51:23.614Z,57.59
2018-10-06T07:52:27.071Z,57.10
2018-10-06T07:53:30.503Z,57.46
2018-10-06T07:54:33.976Z,57.41
2018-10-06T07:55:37.423Z,57.34
2018-10-06T07:56:41.025Z,56.81
2018-10-06T07:57:44.479Z,57.77
2018-10-06T07:58:49.287Z,57.77
2018-10-06T07:59:53.995Z,57.28
2018-10-06T08:00:58.121Z,58.04
2018-10-06T08:02:01.958Z,57.44
2018-10-06T08:03:05.375Z,56.84
2018-10-06T08:04:09.149Z,57.53
2018-10-06T08:05:12.608Z,56.91
2018-10-06T08:06:16.133Z,56.87
2018-10-06T08:07:19.760Z,57.44
2018-10-06T08:08:23.248Z,57.36
2018-10-06T08:09:26.831Z,57.53
2018-10-06T08:10:30.649Z,57.48
2018-10-06T08:11:34.239Z,57.00
2018-10-06T08:12:37.686Z,57.51
2018-10-06T08:13:41.152Z,57.24
2018-10-06T08:14:44.610Z,56.82
2018-10-06T08:15:51.125Z,57.42
2018-10-06T08:16:55.613Z,57.38
2018-10-06T08:17:59.029Z,56.63
2018-10-06T08:19:02.471Z,57.29
2018-10-06T08:20:05.963Z,57.25
2018-10-06T08:21:09.454Z,56.82
2018-10-06T08:22:12.921Z,56.44
2018-10-06T08:23:16.622Z,56.80
2018-10-06T08:24:20.735Z,56.94
2018-10-06T08:25:24.145Z,56.58
2018-10-06T08:26:27.605Z,56.40
2018-10-06T08:27:31.071Z,56.49
2018-10-06T08:28:34.523Z,56.91
2018-10-06T08:29:38.289Z,56.34
2018-10-06T08:30:41.699Z,56.86
2018-10-06T08:31:45.125Z,56.37
2018-10-06T08:32:48.596Z,57.11
2018-10-06T08:33:52.055Z,57.38
2018-10-06T08:34:55.641Z,56.79
2018-10-06T08:35:59.158Z,56.97
2018-10-06T08:37:02.644Z,56.70
2018-10-06T08:38:06.079Z,56.93
2018-10-06T08:39:09.946Z,56.40
2018-10-06T08:40:13.404Z,56.52
2018-10-06T08:41:16.962Z,56.10
2018-10-06T08:42:20.418Z,56.55
2018-10-06T08:43:23.850Z,56.78
2018-10-06T08:44:27.267Z,56.05
2018-10-06T08:45:30.737Z,56.13
2018-10-06T08:46:34.145Z,56.37
2018-10-06T08:47:37.597Z,56.36
2018-10-06T08:48:41.247Z,56.19
2018-10-06T08:49:44.811Z,56.69
2018-10-06T08:50:48.316Z,56.26
2018-10-06T08:51:51.794Z,56.43
2018-10-06T08:52:55.227Z,56.59
2018-10-06T08:53:58.621Z,56.77
2018-10-06T08:55:02.086Z,56.53
2018-10-06T08:56:05.734Z,56.78
2018-10-06T08:57:09.120Z,57.04
2018-10-06T08:58:12.569Z,56.43
2018-10-06T08:59:16.042Z,56.36
2018-10-06T09:00:19.516Z,56.59
2018-10-06T09:01:23.849Z,56.73
2018-10-06T09:02:27.252Z,56.35
2018-10-06T09:03:30.682Z,56.80
2018-10-06T09:04:34.118Z,56.70
2018-10-06T09:05:37.532Z,56.61
2018-10-06T09:06:40.969Z,56.68
2018-10-06T09:07:44.421Z,56.72
2018-10-06T09:08:48.069Z,56.67
2018-10-06T09:09:51.618Z,57.03
2018-10-06T09:10:55.078Z,56.48
2018-10-06T09:11:58.607Z,57.05
2018-10-06T09:13:02.034Z,56.99
2018-10-06T09:14:05.530Z,56.81
2018-10-06T09:15:09.336Z,57.04
2018-10-06T09:16:12.796Z,57.07
2018-10-06T09:17:16.253Z,56.78
2018-10-06T09:18:19.822Z,56.93
2018-10-06T09:19:23.263Z,56.19
2018-10-06T09:20:26.706Z,56.57
2018-10-06T09:21:30.147Z,55.91
2018-10-06T09:22:33.599Z,56.68
2018-10-06T09:23:36.995Z,56.29
2018-10-06T09:24:40.463Z,56.96
2018-10-06T09:25:44.022Z,56.14
2018-10-06T09:26:47.455Z,56.61
2018-10-06T09:27:50.913Z,56.87
2018-10-06T09:28:54.512Z,56.20
2018-10-06T09:29:59.535Z,56.92
2018-10-06T09:31:04.169Z,56.37
2018-10-06T09:32:08.514Z,56.53
2018-10-06T09:33:12.656Z,56.10
2018-10-06T09:34:17.111Z,56.48
2018-10-06T09:35:22.018Z,56.85
2018-10-06T09:36:26.484Z,56.73
2018-10-06T09:37:30.778Z,56.32
2018-10-06T09:38:35.338Z,56.16
2018-10-06T09:39:38.820Z,56.94
2018-10-06T09:40:42.439Z,56.67
2018-10-06T09:41:45.893Z,56.20
2018-10-06T09:42:49.482Z,56.68
2018-10-06T09:43:52.946Z,56.60
2018-10-06T09:44:56.412Z,56.48
2018-10-06T09:45:59.989Z,56.95
2018-10-06T09:47:03.512Z,56.61
2018-10-06T09:48:07.015Z,56.59
2018-10-06T09:49:10.414Z,56.59
2018-10-06T09:50:14.315Z,56.07
2018-10-06T09:51:17.846Z,56.66
2018-10-06T09:52:21.350Z,56.75
2018-10-06T09:53:24.921Z,57.37
2018-10-06T09:54:28.361Z,57.27
2018-10-06T09:55:31.838Z,57.39
2018-10-06T09:56:35.489Z,57.01
2018-10-06T09:57:38.899Z,56.98
2018-10-06T09:58:42.366Z,57.14
2018-10-06T09:59:45.820Z,57.20
2018-10-06T10:00:54.642Z,57.57
2018-10-06T10:02:03.451Z,57.02
2018-10-06T10:03:12.305Z,57.55
2018-10-06T10:04:17.124Z,57.50
2018-10-06T10:05:26.000Z,57.26
2018-10-06T10:06:29.423Z,57.14
2018-10-06T10:07:34.990Z,56.78
2018-10-06T10:08:38.481Z,56.85
2018-10-06T10:09:41.987Z,56.90
2018-10-06T10:10:45.781Z,57.29
2018-10-06T10:11:49.255Z,57.36
2018-10-06T10:12:52.869Z,57.14
2018-10-06T10:13:56.365Z,57.36
2018-10-06T10:14:59.909Z,56.87
2018-10-06T10:16:03.338Z,57.27
2018-10-06T10:17:07.061Z,57.64
2018-10-06T10:18:10.669Z,57.73
2018-10-06T10:19:14.075Z,57.12
2018-10-06T10:20:17.516Z,57.14
2018-10-06T10:21:21.062Z,57.08
2018-10-06T10:22:24.792Z,57.71
2018-10-06T10:23:28.252Z,57.77
2018-10-06T10:24:31.648Z,57.49
2018-10-06T10:25:35.121Z,57.73
2018-10-06T10:26:38.624Z,57.72
2018-10-06T10:27:42.054Z,57.95
2018-10-06T10:28:45.515Z,57.38
2018-10-06T10:29:49.077Z,57.55
2018-10-06T10:30:52.770Z,57.77
2018-10-06T10:31:56.320Z,58.08
2018-10-06T10:32:59.911Z,57.38
2018-10-06T10:34:03.351Z,58.03
2018-10-06T10:35:07.024Z,57.33
2018-10-06T10:36:10.549Z,57.33
2018-10-06T10:37:14.186Z,58.25
2018-10-06T10:38:17.696Z,57.92
2018-10-06T10:39:21.227Z,57.48
2018-10-06T10:40:24.785Z,57.84
2018-10-06T10:41:28.306Z,57.83
2018-10-06T10:42:31.829Z,58.01
2018-10-06T10:43:35.273Z,57.55
2018-10-06T10:44:38.806Z,57.70
2018-10-06T10:45:42.505Z,58.04
2018-10-06T10:46:45.999Z,58.05
2018-10-06T10:47:49.967Z,57.28
2018-10-06T10:48:53.607Z,58.07
2018-10-06T10:49:57.312Z,57.80
2018-10-06T10:51:00.899Z,57.81
2018-10-06T10:52:04.316Z,57.65
2018-10-06T10:53:07.732Z,57.59
2018-10-06T10:54:11.435Z,57.78
2018-10-06T10:55:14.993Z,58.04
2018-10-06T10:56:18.427Z,57.57
2018-10-06T10:57:21.908Z,57.79
2018-10-06T10:58:26.154Z,57.24
2018-10-06T10:59:29.690Z,58.01
2018-10-06T11:00:33.237Z,57.71
2018-10-06T11:01:36.630Z,58.36
2018-10-06T11:02:40.206Z,58.41
2018-10-06T11:03:43.714Z,58.73
2018-10-06T11:04:47.232Z,58.42
2018-10-06T11:05:50.740Z,59.17
2018-10-06T11:06:54.277Z,58.95
2018-10-06T11:07:57.736Z,58.96
2018-10-06T11:09:01.154Z,58.58
2018-10-06T11:10:04.774Z,58.46
2018-10-06T11:11:08.346Z,58.55
2018-10-06T11:12:11.751Z,59.05
2018-10-06T11:13:15.398Z,58.27
2018-10-06T11:14:19.116Z,58.46
2018-10-06T11:15:22.698Z,58.73
2018-10-06T11:16:26.225Z,58.96
2018-10-06T11:17:29.723Z,58.34
2018-10-06T11:18:33.260Z,58.77
2018-10-06T11:19:36.681Z,59.04
2018-10-06T11:20:40.325Z,59.07
2018-10-06T11:21:43.796Z,58.96
2018-10-06T11:22:47.244Z,58.82
2018-10-06T11:23:50.884Z,58.29
2018-10-06T11:24:54.939Z,58.72
2018-10-06T11:25:58.508Z,58.33
2018-10-06T11:27:02.291Z,59.06
2018-10-06T11:28:05.750Z,58.74
2018-10-06T11:29:09.249Z,58.54
2018-10-06T11:30:12.968Z,58.55
2018-10-06T11:31:16.865Z,59.00
2018-10-06T11:32:20.873Z,58.95
2018-10-06T11:33:24.682Z,58.34
2018-10-06T11:34:28.204Z,59.01
2018-10-06T11:35:31.656Z,59.12
2018-10-06T11:36:35.354Z,58.09
2018-10-06T11:37:39.106Z,58.67
2018-10-06T11:38:42.507Z,58.83
2018-10-06T11:39:46.031Z,58.65
2018-10-06T11:40:49.536Z,58.39
2018-10-06T11:41:54.548Z,58.99
2018-10-06T11:42:58.068Z,58.57
2018-10-06T11:44:01.536Z,58.77
2018-10-06T11:45:05.021Z,58.34
2018-10-06T11:46:08.586Z,58.56
2018-10-06T11:47:12.028Z,58.84
2018-10-06T11:48:15.479Z,59.13
2018-10-06T11:49:19.265Z,59.11
2018-10-06T11:50:22.854Z,58.44
2018-10-06T11:51:26.261Z,58.85
2018-10-06T11:52:29.810Z,59.15
2018-10-06T11:53:33.240Z,58.74
2018-10-06T11:54:36.726Z,59.08
2018-10-06T11:55:40.143Z,58.97
2018-10-06T11:56:43.598Z,58.64
2018-10-06T11:57:47.524Z,58.39
2018-10-06T11:58:51.574Z,58.78
2018-10-06T11:59:55.341Z,59.01
2018-10-06T12:00:58.812Z,58.73
2018-10-06T12:02:02.244Z,58.43
2018-10-06T12:03:05.822Z,58.83
2018-10-06T12:04:09.275Z,58.56
2018-10-06T12:05:12.757Z,58.86
2018-10-06T12:06:16.245Z,58.64
2018-10-06T12:07:20.364Z,59.10
2018-10-06T12:08:23.880Z,58.58
2018-10-06T12:09:27.353Z,59.14
2018-10-06T12:10:30.758Z,58.40
2018-10-06T12:11:34.209Z,58.98
2018-10-06T12:12:37.677Z,58.64
2018-10-06T12:13:41.136Z,59.32
2018-10-06T12:14:44.572Z,59.38
2018-10-06T12:15:48.093Z,59.02
2018-10-06T12:16:51.693Z,60.12
2018-10-06T12:17:55.152Z,59.61
2018-10-06T12:18:58.679Z,59.37
2018-10-06T12:20:02.127Z,59.47
2018-10-06T12:21:05.599Z,59.54
2018-10-06T12:22:09.073Z,60.17
2018-10-06T12:23:12.611Z,59.94
2018-10-06T12:24:16.412Z,60.34
2018-10-06T12:25:26.685Z,60.00
2018-10-06T12:26:34.284Z,60.16
2018-10-06T12:27:41.219Z,59.34
2018-10-06T12:28:48.973Z,59.73
2018-10-06T12:29:55.094Z,59.81
2018-10-06T12:31:02.918Z,59.58
2018-10-06T12:32:09.043Z,59.43
2018-10-06T12:33:13.972Z,59.12
2018-10-06T12:34:19.503Z,59.85
2018-10-06T12:35:24.468Z,59.74
2018-10-06T12:36:29.152Z,59.08
2018-10-06T12:37:33.567Z,59.19
2018-10-06T12:38:38.278Z,59.35
2018-10-06T12:39:42.566Z,59.25
2018-10-06T12:40:46.348Z,59.70
2018-10-06T12:41:49.784Z,59.72
2018-10-06T12:42:53.350Z,59.09
2018-10-06T12:43:56.811Z,59.87
2018-10-06T12:45:00.264Z,59.23
2018-10-06T12:46:03.785Z,59.20
2018-10-06T12:47:07.252Z,59.81
2018-10-06T12:48:10.867Z,59.83
2018-10-06T12:49:14.386Z,59.15
2018-10-06T12:50:17.842Z,59.06
2018-10-06T12:51:21.489Z,59.59
2018-10-06T12:52:24.943Z,58.99
2018-10-06T12:53:28.338Z,59.17
2018-10-06T12:54:31.796Z,59.50
2018-10-06T12:55:35.255Z,59.06
2018-10-06T12:56:38.938Z,59.53
2018-10-06T12:57:42.363Z,59.42
2018-10-06T12:58:45.793Z,58.99
2018-10-06T12:59:49.203Z,59.01
2018-10-06T13:00:52.768Z,58.98
2018-10-06T13:01:56.220Z,59.15
2018-10-06T13:02:59.708Z,59.54
2018-10-06T13:04:03.159Z,59.26
2018-10-06T13:05:06.928Z,59.61
2018-10-06T13:06:10.408Z,59.70
2018-10-06T13:07:13.840Z,59.80
2018-10-06T13:08:17.232Z,59.74
2018-10-06T13:09:20.811Z,59.27
2018-10-06T13:10:24.284Z,59.51
2018-10-06T13:11:27.819Z,59.81
2018-10-06T13:12:31.354Z,59.51
2018-10-06T13:13:34.823Z,59.85
2018-10-06T13:14:38.283Z,59.38
2018-10-06T13:15:41.741Z,59.28
2018-10-06T13:16:45.220Z,59.56
2018-10-06T13:17:48.745Z,59.70
2018-10-06T13:18:52.206Z,59.59
2018-10-06T13:19:55.704Z,59.34
2018-10-06T13:20:59.150Z,59.61
2018-10-06T13:22:02.590Z,59.63
2018-10-06T13:23:06.086Z,59.64
2018-10-06T13:24:09.556Z,60.03
2018-10-06T13:25:13.015Z,59.92
2018-10-06T13:26:16.453Z,59.47
2018-10-06T13:27:20.177Z,59.20
2018-10-06T13:28:23.632Z,60.29
2018-10-06T13:29:27.078Z,59.97
2018-10-06T13:30:30.541Z,59.96
2018-10-06T13:31:34.007Z,59.85
2018-10-06T13:32:37.450Z,59.32
2018-10-06T13:33:40.913Z,59.57
2018-10-06T13:34:44.342Z,59.87
2018-10-06T13:35:47.841Z,59.73
2018-10-06T13:36:51.330Z,59.90
2018-10-06T13:37:54.740Z,59.92
2018-10-06T13:38:58.175Z,59.84
2018-10-06T13:40:01.547Z,59.86
2018-10-06T13:41:04.989Z,60.06